sensor_id;sensor_type;location;lat;lon;timestamp;temperature;humidity
19970;DHT22;10146;47.754;9.566;2023-05-23T00:00:21;16.60;99.90
19970;DHT22;10146;47.754;9.566;2023-05-23T00:02:46;16.50;99.90
19970;DHT22;10146;47.754;9.566;2023-05-23T00:05:12;16.40;99.90
19970;DHT22;10146;47.754;9.566;2023-05-23T00:07:40;16.40;99.90
19970;DHT22;10146;47.754;9.566;2023-05-23T00:10:06;16.30;99.90
19970;DHT22;10146;47.754;9.566;2023-05-23T00:12:31;16.30;99.90
19970;DHT22;10146;47.754;9.566;2023-05-23T00:14:58;16.20;99.90
19970;DHT22;10146;47.754;9.566;2023-05-23T00:17:24;16.00;99.90
19970;DHT22;10146;47.754;9.566;2023-05-23T00:19:52;15.90;99.90
19970;DHT22;10146;47.754;9.566;2023-05-23T00:22:20;15.90;99.90
19970;DHT22;10146;47.754;9.566;2023-05-23T00:24:46;15.90;99.90
19970;DHT22;10146;47.754;9.566;2023-05-23T00:27:11;15.90;99.90
19970;DHT22;10146;47.754;9.566;2023-05-23T00:29:37;15.90;99.90
19970;DHT22;10146;47.754;9.566;2023-05-23T00:32:03;15.80;99.90
19970;DHT22;10146;47.754;9.566;2023-05-23T00:34:28;15.80;99.90
19970;DHT22;10146;47.754;9.566;2023-05-23T00:36:54;15.90;99.90
19970;DHT22;10146;47.754;9.566;2023-05-23T00:39:20;15.80;99.90
19970;DHT22;10146;47.754;9.566;2023-05-23T00:41:47;15.70;99.90
19970;DHT22;10146;47.754;9.566;2023-05-23T00:44:13;15.70;99.90
19970;DHT22;10146;47.754;9.566;2023-05-23T00:46:39;15.70;99.90
19970;DHT22;10146;47.754;9.566;2023-05-23T00:49:05;15.80;99.90
19970;DHT22;10146;47.754;9.566;2023-05-23T00:51:31;15.90;99.90
19970;DHT22;10146;47.754;9.566;2023-05-23T00:53:57;15.90;99.90
19970;DHT22;10146;47.754;9.566;2023-05-23T00:56:25;15.90;99.90
19970;DHT22;10146;47.754;9.566;2023-05-23T00:58:53;15.90;99.90
19970;DHT22;10146;47.754;9.566;2023-05-23T01:01:18;15.80;99.90
19970;DHT22;10146;47.754;9.566;2023-05-23T01:03:44;15.80;99.90
19970;DHT22;10146;47.754;9.566;2023-05-23T01:06:13;15.70;99.90
19970;DHT22;10146;47.754;9.566;2023-05-23T01:08:39;15.70;99.90
19970;DHT22;10146;47.754;9.566;2023-05-23T01:11:15;15.70;99.90
19970;DHT22;10146;47.754;9.566;2023-05-23T01:13:46;15.60;99.90
19970;DHT22;10146;47.754;9.566;2023-05-23T01:16:38;15.60;99.90
19970;DHT22;10146;47.754;9.566;2023-05-23T01:19:16;15.60;99.90
19970;DHT22;10146;47.754;9.566;2023-05-23T01:21:46;15.50;99.90
19970;DHT22;10146;47.754;9.566;2023-05-23T01:24:35;15.60;99.90
19970;DHT22;10146;47.754;9.566;2023-05-23T01:27:18;15.50;99.90
19970;DHT22;10146;47.754;9.566;2023-05-23T01:29:52;15.50;99.90
19970;DHT22;10146;47.754;9.566;2023-05-23T01:32:18;15.40;99.90
19970;DHT22;10146;47.754;9.566;2023-05-23T01:34:47;15.30;99.90
19970;DHT22;10146;47.754;9.566;2023-05-23T01:37:13;15.20;99.90
19970;DHT22;10146;47.754;9.566;2023-05-23T01:39:42;15.20;99.90
19970;DHT22;10146;47.754;9.566;2023-05-23T01:42:08;15.30;99.90
19970;DHT22;10146;47.754;9.566;2023-05-23T01:44:35;15.20;99.90
19970;DHT22;10146;47.754;9.566;2023-05-23T01:47:06;15.20;99.90
19970;DHT22;10146;47.754;9.566;2023-05-23T01:49:33;15.20;99.90
19970;DHT22;10146;47.754;9.566;2023-05-23T01:52:01;15.00;99.90
19970;DHT22;10146;47.754;9.566;2023-05-23T01:54:27;15.00;99.90
19970;DHT22;10146;47.754;9.566;2023-05-23T01:56:57;14.90;99.90
19970;DHT22;10146;47.754;9.566;2023-05-23T01:59:23;14.90;99.90
19970;DHT22;10146;47.754;9.566;2023-05-23T02:01:49;15.00;99.90
19970;DHT22;10146;47.754;9.566;2023-05-23T02:04:14;14.90;99.90
19970;DHT22;10146;47.754;9.566;2023-05-23T02:06:40;14.90;99.90
19970;DHT22;10146;47.754;9.566;2023-05-23T02:09:06;15.00;99.90
19970;DHT22;10146;47.754;9.566;2023-05-23T02:11:33;14.90;99.90
19970;DHT22;10146;47.754;9.566;2023-05-23T02:13:58;15.00;99.90
19970;DHT22;10146;47.754;9.566;2023-05-23T02:16:24;15.10;99.90
19970;DHT22;10146;47.754;9.566;2023-05-23T02:18:50;15.10;99.90
19970;DHT22;10146;47.754;9.566;2023-05-23T02:21:22;15.10;99.90
19970;DHT22;10146;47.754;9.566;2023-05-23T02:23:47;15.10;99.90
19970;DHT22;10146;47.754;9.566;2023-05-23T02:26:13;15.20;99.90
19970;DHT22;10146;47.754;9.566;2023-05-23T02:28:39;15.10;99.90
19970;DHT22;10146;47.754;9.566;2023-05-23T02:31:05;15.00;99.90
19970;DHT22;10146;47.754;9.566;2023-05-23T02:33:31;14.90;99.90
19970;DHT22;10146;47.754;9.566;2023-05-23T02:35:57;14.80;99.90
19970;DHT22;10146;47.754;9.566;2023-05-23T02:38:22;14.70;99.90
19970;DHT22;10146;47.754;9.566;2023-05-23T02:40:48;14.70;99.90
19970;DHT22;10146;47.754;9.566;2023-05-23T02:43:16;14.70;99.90
19970;DHT22;10146;47.754;9.566;2023-05-23T02:45:41;14.70;99.90
19970;DHT22;10146;47.754;9.566;2023-05-23T02:48:07;14.70;99.90
19970;DHT22;10146;47.754;9.566;2023-05-23T02:50:32;14.60;99.90
19970;DHT22;10146;47.754;9.566;2023-05-23T02:52:58;14.50;99.90
19970;DHT22;10146;47.754;9.566;2023-05-23T02:55:23;14.50;99.90
19970;DHT22;10146;47.754;9.566;2023-05-23T02:57:49;14.50;99.90
19970;DHT22;10146;47.754;9.566;2023-05-23T03:00:15;14.60;99.90
19970;DHT22;10146;47.754;9.566;2023-05-23T03:02:41;14.70;99.90
19970;DHT22;10146;47.754;9.566;2023-05-23T03:05:07;14.80;99.90
19970;DHT22;10146;47.754;9.566;2023-05-23T03:07:33;14.80;99.90
19970;DHT22;10146;47.754;9.566;2023-05-23T03:09:59;14.80;99.90
19970;DHT22;10146;47.754;9.566;2023-05-23T03:12:27;14.80;99.90
19970;DHT22;10146;47.754;9.566;2023-05-23T03:14:52;14.80;99.90
19970;DHT22;10146;47.754;9.566;2023-05-23T03:17:18;14.90;99.90
19970;DHT22;10146;47.754;9.566;2023-05-23T03:19:44;14.90;99.90
19970;DHT22;10146;47.754;9.566;2023-05-23T03:22:09;14.90;99.90
19970;DHT22;10146;47.754;9.566;2023-05-23T03:24:35;14.90;99.90
19970;DHT22;10146;47.754;9.566;2023-05-23T03:27:00;14.90;99.90
19970;DHT22;10146;47.754;9.566;2023-05-23T03:29:26;15.00;99.90
19970;DHT22;10146;47.754;9.566;2023-05-23T03:31:52;15.00;99.90
19970;DHT22;10146;47.754;9.566;2023-05-23T03:34:17;15.00;99.90
19970;DHT22;10146;47.754;9.566;2023-05-23T03:36:43;15.00;99.90
19970;DHT22;10146;47.754;9.566;2023-05-23T03:39:08;15.00;99.90
19970;DHT22;10146;47.754;9.566;2023-05-23T03:41:34;15.00;99.90
19970;DHT22;10146;47.754;9.566;2023-05-23T03:43:59;14.90;99.90
19970;DHT22;10146;47.754;9.566;2023-05-23T03:46:25;14.90;99.90
19970;DHT22;10146;47.754;9.566;2023-05-23T03:48:51;14.90;99.90
19970;DHT22;10146;47.754;9.566;2023-05-23T03:51:16;14.90;99.90
19970;DHT22;10146;47.754;9.566;2023-05-23T03:53:42;14.90;99.90
19970;DHT22;10146;47.754;9.566;2023-05-23T03:56:07;14.90;99.90
19970;DHT22;10146;47.754;9.566;2023-05-23T03:58:33;14.90;99.90
19970;DHT22;10146;47.754;9.566;2023-05-23T04:00:59;14.80;99.90
19970;DHT22;10146;47.754;9.566;2023-05-23T04:03:26;14.80;99.90
19970;DHT22;10146;47.754;9.566;2023-05-23T04:05:51;14.80;99.90
19970;DHT22;10146;47.754;9.566;2023-05-23T04:08:17;14.80;99.90
19970;DHT22;10146;47.754;9.566;2023-05-23T04:10:46;14.90;99.90
19970;DHT22;10146;47.754;9.566;2023-05-23T04:13:12;14.90;99.90
19970;DHT22;10146;47.754;9.566;2023-05-23T04:15:37;14.90;99.90
19970;DHT22;10146;47.754;9.566;2023-05-23T04:18:03;14.90;99.90
19970;DHT22;10146;47.754;9.566;2023-05-23T04:20:31;14.90;99.90
19970;DHT22;10146;47.754;9.566;2023-05-23T04:22:57;14.80;99.90
19970;DHT22;10146;47.754;9.566;2023-05-23T04:25:22;14.80;99.90
19970;DHT22;10146;47.754;9.566;2023-05-23T04:27:48;14.90;99.90
19970;DHT22;10146;47.754;9.566;2023-05-23T04:30:14;14.90;99.90
19970;DHT22;10146;47.754;9.566;2023-05-23T04:32:42;14.90;99.90
19970;DHT22;10146;47.754;9.566;2023-05-23T04:35:08;14.90;99.90
19970;DHT22;10146;47.754;9.566;2023-05-23T04:37:35;14.90;99.90
19970;DHT22;10146;47.754;9.566;2023-05-23T04:40:02;15.00;99.90
19970;DHT22;10146;47.754;9.566;2023-05-23T04:42:28;15.10;99.90
19970;DHT22;10146;47.754;9.566;2023-05-23T04:44:54;15.20;99.90
19970;DHT22;10146;47.754;9.566;2023-05-23T04:47:23;15.20;99.90
19970;DHT22;10146;47.754;9.566;2023-05-23T04:49:55;15.40;99.90
19970;DHT22;10146;47.754;9.566;2023-05-23T04:52:21;15.50;99.90
19970;DHT22;10146;47.754;9.566;2023-05-23T04:54:47;15.50;99.90
19970;DHT22;10146;47.754;9.566;2023-05-23T04:57:13;15.50;99.90
19970;DHT22;10146;47.754;9.566;2023-05-23T04:59:39;15.50;99.90
19970;DHT22;10146;47.754;9.566;2023-05-23T05:02:05;15.50;99.90
19970;DHT22;10146;47.754;9.566;2023-05-23T05:04:30;15.60;99.90
19970;DHT22;10146;47.754;9.566;2023-05-23T05:06:56;15.60;99.90
19970;DHT22;10146;47.754;9.566;2023-05-23T05:09:22;15.70;99.90
19970;DHT22;10146;47.754;9.566;2023-05-23T05:11:48;15.70;99.90
19970;DHT22;10146;47.754;9.566;2023-05-23T05:14:13;15.80;99.90
19970;DHT22;10146;47.754;9.566;2023-05-23T05:16:39;15.90;99.90
19970;DHT22;10146;47.754;9.566;2023-05-23T05:19:07;16.00;99.90
19970;DHT22;10146;47.754;9.566;2023-05-23T05:21:32;16.00;99.90
19970;DHT22;10146;47.754;9.566;2023-05-23T05:23:58;16.10;99.90
19970;DHT22;10146;47.754;9.566;2023-05-23T05:26:24;16.20;99.90
19970;DHT22;10146;47.754;9.566;2023-05-23T05:28:51;16.30;99.90
19970;DHT22;10146;47.754;9.566;2023-05-23T05:31:17;16.30;99.90
19970;DHT22;10146;47.754;9.566;2023-05-23T05:33:43;16.40;99.90
19970;DHT22;10146;47.754;9.566;2023-05-23T05:36:10;16.50;99.90
19970;DHT22;10146;47.754;9.566;2023-05-23T05:38:35;16.60;99.90
19970;DHT22;10146;47.754;9.566;2023-05-23T05:41:01;16.70;99.90
19970;DHT22;10146;47.754;9.566;2023-05-23T05:43:26;16.80;99.90
19970;DHT22;10146;47.754;9.566;2023-05-23T05:45:52;16.80;99.90
19970;DHT22;10146;47.754;9.566;2023-05-23T05:48:18;16.90;99.90
19970;DHT22;10146;47.754;9.566;2023-05-23T05:50:43;16.90;99.90
19970;DHT22;10146;47.754;9.566;2023-05-23T05:53:10;16.90;99.90
19970;DHT22;10146;47.754;9.566;2023-05-23T05:55:36;17.00;99.90
19970;DHT22;10146;47.754;9.566;2023-05-23T05:58:02;17.10;99.90
19970;DHT22;10146;47.754;9.566;2023-05-23T06:00:28;17.10;99.90
19970;DHT22;10146;47.754;9.566;2023-05-23T06:02:54;17.10;99.90
19970;DHT22;10146;47.754;9.566;2023-05-23T06:05:22;17.30;99.90
19970;DHT22;10146;47.754;9.566;2023-05-23T06:07:48;17.40;99.90
19970;DHT22;10146;47.754;9.566;2023-05-23T06:10:14;17.50;99.90
19970;DHT22;10146;47.754;9.566;2023-05-23T06:12:40;17.60;99.90
19970;DHT22;10146;47.754;9.566;2023-05-23T06:15:06;17.70;99.90
19970;DHT22;10146;47.754;9.566;2023-05-23T06:17:32;17.80;99.90
19970;DHT22;10146;47.754;9.566;2023-05-23T06:19:58;17.90;99.90
19970;DHT22;10146;47.754;9.566;2023-05-23T06:22:23;18.00;99.90
19970;DHT22;10146;47.754;9.566;2023-05-23T06:24:49;18.00;99.90
19970;DHT22;10146;47.754;9.566;2023-05-23T06:27:15;18.10;99.90
19970;DHT22;10146;47.754;9.566;2023-05-23T06:29:40;18.10;99.90
19970;DHT22;10146;47.754;9.566;2023-05-23T06:32:06;18.10;99.90
19970;DHT22;10146;47.754;9.566;2023-05-23T06:34:31;18.20;99.90
19970;DHT22;10146;47.754;9.566;2023-05-23T06:36:57;18.20;99.90
19970;DHT22;10146;47.754;9.566;2023-05-23T06:39:23;18.20;99.90
19970;DHT22;10146;47.754;9.566;2023-05-23T06:41:48;18.20;99.90
19970;DHT22;10146;47.754;9.566;2023-05-23T06:44:14;18.30;99.90
19970;DHT22;10146;47.754;9.566;2023-05-23T06:46:42;18.30;99.90
19970;DHT22;10146;47.754;9.566;2023-05-23T06:49:09;18.40;99.90
19970;DHT22;10146;47.754;9.566;2023-05-23T06:51:35;18.40;99.90
19970;DHT22;10146;47.754;9.566;2023-05-23T06:54:00;18.50;99.90
19970;DHT22;10146;47.754;9.566;2023-05-23T06:56:26;18.40;99.90
19970;DHT22;10146;47.754;9.566;2023-05-23T06:58:52;18.40;99.90
19970;DHT22;10146;47.754;9.566;2023-05-23T07:01:17;18.50;99.90
19970;DHT22;10146;47.754;9.566;2023-05-23T07:03:43;18.60;99.90
19970;DHT22;10146;47.754;9.566;2023-05-23T07:06:10;18.80;99.90
19970;DHT22;10146;47.754;9.566;2023-05-23T07:08:36;19.00;99.90
19970;DHT22;10146;47.754;9.566;2023-05-23T07:11:03;19.20;99.90
19970;DHT22;10146;47.754;9.566;2023-05-23T07:13:28;19.40;99.90
19970;DHT22;10146;47.754;9.566;2023-05-23T07:15:55;19.60;99.90
19970;DHT22;10146;47.754;9.566;2023-05-23T07:18:20;20.00;99.90
19970;DHT22;10146;47.754;9.566;2023-05-23T07:20:46;20.30;99.90
19970;DHT22;10146;47.754;9.566;2023-05-23T07:23:12;20.50;99.90
19970;DHT22;10146;47.754;9.566;2023-05-23T07:25:37;20.40;99.90
19970;DHT22;10146;47.754;9.566;2023-05-23T07:28:05;20.30;99.90
19970;DHT22;10146;47.754;9.566;2023-05-23T07:30:30;20.20;99.90
19970;DHT22;10146;47.754;9.566;2023-05-23T07:32:56;20.20;99.90
19970;DHT22;10146;47.754;9.566;2023-05-23T07:35:22;20.10;99.90
19970;DHT22;10146;47.754;9.566;2023-05-23T07:37:51;20.20;99.90
19970;DHT22;10146;47.754;9.566;2023-05-23T07:40:17;20.30;99.90
19970;DHT22;10146;47.754;9.566;2023-05-23T07:42:43;20.30;99.90
19970;DHT22;10146;47.754;9.566;2023-05-23T07:45:09;20.40;99.90
19970;DHT22;10146;47.754;9.566;2023-05-23T07:47:35;20.40;99.90
19970;DHT22;10146;47.754;9.566;2023-05-23T07:50:00;20.40;99.90
19970;DHT22;10146;47.754;9.566;2023-05-23T07:52:29;20.30;99.90
19970;DHT22;10146;47.754;9.566;2023-05-23T07:54:56;20.30;99.90
19970;DHT22;10146;47.754;9.566;2023-05-23T07:57:22;20.40;99.90
19970;DHT22;10146;47.754;9.566;2023-05-23T07:59:49;20.40;99.90
19970;DHT22;10146;47.754;9.566;2023-05-23T08:02:18;20.40;99.90
19970;DHT22;10146;47.754;9.566;2023-05-23T08:04:44;20.30;99.90
19970;DHT22;10146;47.754;9.566;2023-05-23T08:07:10;20.10;99.90
19970;DHT22;10146;47.754;9.566;2023-05-23T08:09:36;20.00;99.90
19970;DHT22;10146;47.754;9.566;2023-05-23T08:12:02;20.00;99.90
19970;DHT22;10146;47.754;9.566;2023-05-23T08:14:28;19.90;99.90
19970;DHT22;10146;47.754;9.566;2023-05-23T08:16:53;19.80;99.90
19970;DHT22;10146;47.754;9.566;2023-05-23T08:19:19;19.70;99.90
19970;DHT22;10146;47.754;9.566;2023-05-23T08:21:46;19.60;99.90
19970;DHT22;10146;47.754;9.566;2023-05-23T08:24:12;19.70;99.90
19970;DHT22;10146;47.754;9.566;2023-05-23T08:26:38;19.70;99.90
19970;DHT22;10146;47.754;9.566;2023-05-23T08:29:04;19.70;99.90
19970;DHT22;10146;47.754;9.566;2023-05-23T08:31:32;19.70;99.90
19970;DHT22;10146;47.754;9.566;2023-05-23T08:33:58;19.80;99.90
19970;DHT22;10146;47.754;9.566;2023-05-23T08:36:23;19.80;99.90
19970;DHT22;10146;47.754;9.566;2023-05-23T08:38:49;19.80;99.90
19970;DHT22;10146;47.754;9.566;2023-05-23T08:41:20;19.80;99.90
19970;DHT22;10146;47.754;9.566;2023-05-23T08:43:46;19.80;99.90
19970;DHT22;10146;47.754;9.566;2023-05-23T08:46:13;19.90;99.90
19970;DHT22;10146;47.754;9.566;2023-05-23T08:48:41;20.00;99.90
19970;DHT22;10146;47.754;9.566;2023-05-23T08:51:09;20.10;99.90
19970;DHT22;10146;47.754;9.566;2023-05-23T08:53:37;20.30;99.90
19970;DHT22;10146;47.754;9.566;2023-05-23T08:56:05;20.40;99.90
19970;DHT22;10146;47.754;9.566;2023-05-23T08:58:34;20.50;99.90
19970;DHT22;10146;47.754;9.566;2023-05-23T09:01:00;20.60;99.90
19970;DHT22;10146;47.754;9.566;2023-05-23T09:03:26;20.70;99.90
19970;DHT22;10146;47.754;9.566;2023-05-23T09:05:55;20.80;99.90
19970;DHT22;10146;47.754;9.566;2023-05-23T09:08:22;20.90;99.90
19970;DHT22;10146;47.754;9.566;2023-05-23T09:10:51;20.90;99.90
19970;DHT22;10146;47.754;9.566;2023-05-23T09:13:17;20.90;99.90
19970;DHT22;10146;47.754;9.566;2023-05-23T09:16:00;20.70;99.90
19970;DHT22;10146;47.754;9.566;2023-05-23T09:18:26;20.80;99.90
19970;DHT22;10146;47.754;9.566;2023-05-23T09:20:52;21.10;99.90
19970;DHT22;10146;47.754;9.566;2023-05-23T09:23:18;21.30;99.90
19970;DHT22;10146;47.754;9.566;2023-05-23T09:25:47;21.70;99.90
19970;DHT22;10146;47.754;9.566;2023-05-23T09:28:13;21.60;99.90
19970;DHT22;10146;47.754;9.566;2023-05-23T09:30:39;21.50;99.90
19970;DHT22;10146;47.754;9.566;2023-05-23T09:33:04;21.70;99.90
19970;DHT22;10146;47.754;9.566;2023-05-23T09:35:37;21.80;99.90
19970;DHT22;10146;47.754;9.566;2023-05-23T09:38:07;21.90;99.90
19970;DHT22;10146;47.754;9.566;2023-05-23T09:40:33;22.00;99.90
19970;DHT22;10146;47.754;9.566;2023-05-23T09:43:04;22.10;99.90
19970;DHT22;10146;47.754;9.566;2023-05-23T09:45:32;22.30;99.90
19970;DHT22;10146;47.754;9.566;2023-05-23T09:47:58;22.50;99.90
19970;DHT22;10146;47.754;9.566;2023-05-23T09:50:30;22.70;99.90
19970;DHT22;10146;47.754;9.566;2023-05-23T09:52:58;22.90;99.90
19970;DHT22;10146;47.754;9.566;2023-05-23T09:55:23;22.90;99.90
19970;DHT22;10146;47.754;9.566;2023-05-23T09:57:52;23.00;99.90
19970;DHT22;10146;47.754;9.566;2023-05-23T10:00:22;23.10;99.90
19970;DHT22;10146;47.754;9.566;2023-05-23T10:03:09;23.40;99.90
19970;DHT22;10146;47.754;9.566;2023-05-23T10:06:00;23.50;99.90
19970;DHT22;10146;47.754;9.566;2023-05-23T10:08:35;23.40;99.90
19970;DHT22;10146;47.754;9.566;2023-05-23T10:13:36;23.20;99.90
19970;DHT22;10146;47.754;9.566;2023-05-23T10:16:19;22.90;99.90
19970;DHT22;10146;47.754;9.566;2023-05-23T10:18:52;22.70;99.90
19970;DHT22;10146;47.754;9.566;2023-05-23T10:21:24;22.30;99.90
19970;DHT22;10146;47.754;9.566;2023-05-23T10:23:51;21.90;99.90
19970;DHT22;10146;47.754;9.566;2023-05-23T10:26:17;21.70;99.90
19970;DHT22;10146;47.754;9.566;2023-05-23T10:28:43;21.40;99.90
19970;DHT22;10146;47.754;9.566;2023-05-23T10:31:10;21.20;99.90
19970;DHT22;10146;47.754;9.566;2023-05-23T10:33:41;21.10;99.90
19970;DHT22;10146;47.754;9.566;2023-05-23T10:36:12;20.80;99.90
19970;DHT22;10146;47.754;9.566;2023-05-23T10:38:45;20.40;99.90
19970;DHT22;10146;47.754;9.566;2023-05-23T10:41:35;20.30;99.90
19970;DHT22;10146;47.754;9.566;2023-05-23T10:44:15;20.20;99.90
19970;DHT22;10146;47.754;9.566;2023-05-23T10:46:53;20.10;99.90
19970;DHT22;10146;47.754;9.566;2023-05-23T10:52:05;19.80;99.90
19970;DHT22;10146;47.754;9.566;2023-05-23T10:54:50;19.70;99.90
19970;DHT22;10146;47.754;9.566;2023-05-23T10:57:19;19.70;99.90
19970;DHT22;10146;47.754;9.566;2023-05-23T10:59:45;19.60;99.90
19970;DHT22;10146;47.754;9.566;2023-05-23T11:02:13;19.60;99.90
19970;DHT22;10146;47.754;9.566;2023-05-23T11:04:43;19.70;99.90
19970;DHT22;10146;47.754;9.566;2023-05-23T11:07:28;20.00;99.90
19970;DHT22;10146;47.754;9.566;2023-05-23T11:10:11;20.30;99.90
19970;DHT22;10146;47.754;9.566;2023-05-23T11:12:40;20.60;99.90
19970;DHT22;10146;47.754;9.566;2023-05-23T11:15:19;21.00;99.90
19970;DHT22;10146;47.754;9.566;2023-05-23T11:17:55;21.70;99.90
19970;DHT22;10146;47.754;9.566;2023-05-23T11:20:23;21.90;99.90
19970;DHT22;10146;47.754;9.566;2023-05-23T11:22:59;22.00;99.90
19970;DHT22;10146;47.754;9.566;2023-05-23T11:25:40;22.10;99.90
19970;DHT22;10146;47.754;9.566;2023-05-23T11:28:09;22.30;99.90
19970;DHT22;10146;47.754;9.566;2023-05-23T11:30:35;22.30;99.90
19970;DHT22;10146;47.754;9.566;2023-05-23T11:33:07;22.10;99.90
19970;DHT22;10146;47.754;9.566;2023-05-23T11:35:35;22.00;99.90
19970;DHT22;10146;47.754;9.566;2023-05-23T11:38:03;21.80;99.90
19970;DHT22;10146;47.754;9.566;2023-05-23T11:40:34;21.40;99.90
19970;DHT22;10146;47.754;9.566;2023-05-23T11:43:02;21.20;99.90
19970;DHT22;10146;47.754;9.566;2023-05-23T11:45:29;21.10;99.90
19970;DHT22;10146;47.754;9.566;2023-05-23T11:47:56;21.00;99.90
19970;DHT22;10146;47.754;9.566;2023-05-23T11:50:21;20.80;99.90
19970;DHT22;10146;47.754;9.566;2023-05-23T11:52:49;20.80;99.90
19970;DHT22;10146;47.754;9.566;2023-05-23T11:55:21;20.60;99.90
19970;DHT22;10146;47.754;9.566;2023-05-23T11:57:47;20.50;99.90
19970;DHT22;10146;47.754;9.566;2023-05-23T12:00:14;20.30;99.90
19970;DHT22;10146;47.754;9.566;2023-05-23T12:02:44;20.30;99.90
19970;DHT22;10146;47.754;9.566;2023-05-23T12:05:13;20.40;99.90
19970;DHT22;10146;47.754;9.566;2023-05-23T12:07:47;20.60;99.90
19970;DHT22;10146;47.754;9.566;2023-05-23T12:10:14;20.70;99.90
19970;DHT22;10146;47.754;9.566;2023-05-23T12:12:41;20.90;99.90
19970;DHT22;10146;47.754;9.566;2023-05-23T12:15:08;21.20;99.90
19970;DHT22;10146;47.754;9.566;2023-05-23T12:17:36;21.70;99.90
19970;DHT22;10146;47.754;9.566;2023-05-23T12:20:04;22.40;99.90
19970;DHT22;10146;47.754;9.566;2023-05-23T12:22:29;23.00;99.90
19970;DHT22;10146;47.754;9.566;2023-05-23T12:24:55;23.60;99.90
19970;DHT22;10146;47.754;9.566;2023-05-23T12:27:28;23.90;99.90
19970;DHT22;10146;47.754;9.566;2023-05-23T12:30:04;23.50;99.90
19970;DHT22;10146;47.754;9.566;2023-05-23T12:32:31;23.50;99.90
19970;DHT22;10146;47.754;9.566;2023-05-23T12:34:57;23.50;99.90
19970;DHT22;10146;47.754;9.566;2023-05-23T12:37:23;23.30;99.90
19970;DHT22;10146;47.754;9.566;2023-05-23T12:39:48;23.30;99.90
19970;DHT22;10146;47.754;9.566;2023-05-23T12:42:14;23.70;99.90
19970;DHT22;10146;47.754;9.566;2023-05-23T12:44:40;24.20;99.90
19970;DHT22;10146;47.754;9.566;2023-05-23T12:47:08;23.90;99.90
19970;DHT22;10146;47.754;9.566;2023-05-23T12:49:34;23.70;99.90
19970;DHT22;10146;47.754;9.566;2023-05-23T12:52:00;23.80;99.90
19970;DHT22;10146;47.754;9.566;2023-05-23T12:54:25;24.00;99.90
19970;DHT22;10146;47.754;9.566;2023-05-23T12:56:51;23.80;99.90
19970;DHT22;10146;47.754;9.566;2023-05-23T12:59:17;24.00;99.90
19970;DHT22;10146;47.754;9.566;2023-05-23T13:01:42;24.40;99.90
19970;DHT22;10146;47.754;9.566;2023-05-23T13:04:08;24.30;99.90
19970;DHT22;10146;47.754;9.566;2023-05-23T13:06:33;24.50;99.90
19970;DHT22;10146;47.754;9.566;2023-05-23T13:08:59;24.80;99.90
19970;DHT22;10146;47.754;9.566;2023-05-23T13:11:25;24.90;99.90
19970;DHT22;10146;47.754;9.566;2023-05-23T13:13:51;24.90;99.90
19970;DHT22;10146;47.754;9.566;2023-05-23T13:16:17;25.30;99.90
19970;DHT22;10146;47.754;9.566;2023-05-23T13:18:43;24.90;99.90
19970;DHT22;10146;47.754;9.566;2023-05-23T13:21:09;24.90;99.90
19970;DHT22;10146;47.754;9.566;2023-05-23T13:23:34;25.20;99.90
19970;DHT22;10146;47.754;9.566;2023-05-23T13:26:02;25.50;99.90
19970;DHT22;10146;47.754;9.566;2023-05-23T13:28:28;25.70;99.90
19970;DHT22;10146;47.754;9.566;2023-05-23T13:30:53;25.90;99.90
19970;DHT22;10146;47.754;9.566;2023-05-23T13:33:19;25.90;99.90
19970;DHT22;10146;47.754;9.566;2023-05-23T13:35:47;25.50;99.90
19970;DHT22;10146;47.754;9.566;2023-05-23T13:38:13;25.50;99.90
19970;DHT22;10146;47.754;9.566;2023-05-23T13:40:39;25.90;99.90
19970;DHT22;10146;47.754;9.566;2023-05-23T13:43:04;25.90;99.90
19970;DHT22;10146;47.754;9.566;2023-05-23T13:45:30;25.30;99.90
19970;DHT22;10146;47.754;9.566;2023-05-23T13:47:58;25.50;99.90
19970;DHT22;10146;47.754;9.566;2023-05-23T13:50:23;25.80;99.90
19970;DHT22;10146;47.754;9.566;2023-05-23T13:52:49;25.70;99.90
19970;DHT22;10146;47.754;9.566;2023-05-23T13:55:15;25.40;99.90
19970;DHT22;10146;47.754;9.566;2023-05-23T13:57:41;24.80;99.90
19970;DHT22;10146;47.754;9.566;2023-05-23T14:00:07;24.40;99.90
19970;DHT22;10146;47.754;9.566;2023-05-23T14:02:33;24.00;99.90
19970;DHT22;10146;47.754;9.566;2023-05-23T14:04:59;23.40;99.90
19970;DHT22;10146;47.754;9.566;2023-05-23T14:07:24;23.10;99.90
19970;DHT22;10146;47.754;9.566;2023-05-23T14:09:50;22.90;99.90
19970;DHT22;10146;47.754;9.566;2023-05-23T14:12:15;22.70;99.90
19970;DHT22;10146;47.754;9.566;2023-05-23T14:14:41;22.70;99.90
19970;DHT22;10146;47.754;9.566;2023-05-23T14:17:06;22.50;99.90
19970;DHT22;10146;47.754;9.566;2023-05-23T14:19:32;22.50;99.90
19970;DHT22;10146;47.754;9.566;2023-05-23T14:21:58;22.60;99.90
19970;DHT22;10146;47.754;9.566;2023-05-23T14:24:23;22.50;99.90
19970;DHT22;10146;47.754;9.566;2023-05-23T14:26:49;22.70;99.90
19970;DHT22;10146;47.754;9.566;2023-05-23T14:29:15;22.70;99.90
19970;DHT22;10146;47.754;9.566;2023-05-23T14:31:40;22.80;99.90
19970;DHT22;10146;47.754;9.566;2023-05-23T14:34:06;22.60;99.90
19970;DHT22;10146;47.754;9.566;2023-05-23T14:36:32;22.60;99.90
19970;DHT22;10146;47.754;9.566;2023-05-23T14:38:57;22.60;99.90
19970;DHT22;10146;47.754;9.566;2023-05-23T14:41:23;22.50;99.90
19970;DHT22;10146;47.754;9.566;2023-05-23T14:43:49;22.30;99.90
19970;DHT22;10146;47.754;9.566;2023-05-23T14:46:16;22.10;99.90
19970;DHT22;10146;47.754;9.566;2023-05-23T14:48:42;21.80;99.90
19970;DHT22;10146;47.754;9.566;2023-05-23T14:51:07;21.90;99.90
19970;DHT22;10146;47.754;9.566;2023-05-23T14:53:34;22.00;99.90
19970;DHT22;10146;47.754;9.566;2023-05-23T14:56:00;22.00;99.90
19970;DHT22;10146;47.754;9.566;2023-05-23T14:58:25;22.00;99.90
19970;DHT22;10146;47.754;9.566;2023-05-23T15:00:51;22.20;99.90
19970;DHT22;10146;47.754;9.566;2023-05-23T15:03:17;22.40;99.90
19970;DHT22;10146;47.754;9.566;2023-05-23T15:05:43;22.50;99.90
19970;DHT22;10146;47.754;9.566;2023-05-23T15:08:10;22.70;99.90
19970;DHT22;10146;47.754;9.566;2023-05-23T15:10:35;22.70;99.90
19970;DHT22;10146;47.754;9.566;2023-05-23T15:13:01;22.70;99.90
19970;DHT22;10146;47.754;9.566;2023-05-23T15:15:28;22.60;99.90
19970;DHT22;10146;47.754;9.566;2023-05-23T15:18:02;22.70;99.90
19970;DHT22;10146;47.754;9.566;2023-05-23T15:20:31;22.90;99.90
19970;DHT22;10146;47.754;9.566;2023-05-23T15:22:57;23.00;99.90
19970;DHT22;10146;47.754;9.566;2023-05-23T15:25:22;22.90;99.90
19970;DHT22;10146;47.754;9.566;2023-05-23T15:27:51;23.00;99.90
19970;DHT22;10146;47.754;9.566;2023-05-23T15:30:16;23.20;99.90
19970;DHT22;10146;47.754;9.566;2023-05-23T15:32:42;23.30;99.90
19970;DHT22;10146;47.754;9.566;2023-05-23T15:35:08;22.80;99.90